Time;durP1;ratioP1;P1;durP2;ratioP2;P2;SDS_P1;SDS_P2;PMS_P1;PMS_P2;Temp;Humidity;BMP_temperature;BMP_pressure;BME280_temperature;BME280_humidity;BME280_pressure;Samples;Min_cycle;Max_cycle;Signal;HPM_P1;HPM_P2
2023/09/04 00:00:32;;;;;;;;;6.25;6.25;;;;;29.05;100.00;101728.25;2121897;27;46890;-56
2023/09/04 00:01:34;;;;;;;;;5.00;5.00;;;;;29.05;100.00;101733.72;2122064;27;45586;-56
2023/09/04 00:02:35;;;;;;;;;4.50;4.50;;;;;29.04;100.00;101729.25;2121048;27;46888;-56
2023/09/04 00:03:35;;;;;;;;;6.00;5.00;;;;;29.05;100.00;101725.50;2112596;27;46747;-53
2023/09/04 00:04:35;;;;;;;;;4.33;4.00;;;;;29.04;100.00;101724.66;2112836;27;46245;-56
2023/09/04 00:05:36;;;;;;;;;6.00;6.00;;;;;29.02;100.00;101727.50;2122156;27;46182;-53
2023/09/04 00:06:36;;;;;;;;;5.00;5.00;;;;;29.01;100.00;101725.78;2121707;27;46257;-52
2023/09/04 00:07:36;;;;;;;;;6.00;6.00;;;;;29.01;100.00;101720.31;2113057;27;46832;-52
2023/09/04 00:08:37;;;;;;;;;2.67;2.67;;;;;29.02;100.00;101722.03;2110556;27;46742;-54
2023/09/04 00:09:39;;;;;;;;;5.00;4.00;;;;;29.01;100.00;101723.03;2121525;27;46851;-51
2023/09/04 00:10:39;;;;;;;;;4.75;4.75;;;;;28.99;100.00;101724.19;2122147;27;46345;-55
2023/09/04 00:11:39;;;;;;;;;5.67;4.00;;;;;28.98;100.00;101730.63;2122043;27;46616;-54
2023/09/04 00:12:40;;;;;;;;;3.67;3.00;;;;;28.97;100.00;101726.16;2122546;27;45706;-56
2023/09/04 00:13:41;;;;;;;;;4.00;4.00;;;;;28.99;100.00;101726.91;2112810;27;46253;-53
2023/09/04 00:14:41;;;;;;;;;4.67;4.67;;;;;29.01;100.00;101724.91;2115233;27;46561;-55
2023/09/04 00:15:42;;;;;;;;;5.00;4.00;;;;;28.99;100.00;101726.91;2112735;27;46711;-53
2023/09/04 00:16:42;;;;;;;;;4.33;4.33;;;;;28.98;100.00;101726.03;2112012;27;46547;-53
2023/09/04 00:17:42;;;;;;;;;5.00;5.00;;;;;28.98;100.00;101727.91;2121774;27;46595;-55
2023/09/04 00:18:43;;;;;;;;;3.00;3.00;;;;;29.07;100.00;101724.38;2122005;27;46574;-55
2023/09/04 00:19:43;;;;;;;;;5.00;5.00;;;;;29.09;100.00;101727.84;2118261;27;46581;-55
2023/09/04 00:20:43;;;;;;;;;4.67;4.67;;;;;29.09;100.00;101722.38;2114729;27;46369;-55
2023/09/04 00:21:44;;;;;;;;;6.00;6.00;;;;;29.09;100.00;101725.13;2121439;27;46171;-53
2023/09/04 00:22:44;;;;;;;;;5.67;4.00;;;;;29.08;100.00;101720.66;2121692;27;46619;-54
2023/09/04 00:23:44;;;;;;;;;5.33;5.33;;;;;29.09;100.00;101729.72;2121703;27;46685;-55
2023/09/04 00:24:45;;;;;;;;;5.00;5.00;;;;;29.07;100.00;101718.03;2121957;27;46632;-56
2023/09/04 00:25:46;;;;;;;;;4.67;4.67;;;;;29.08;100.00;101717.03;2121837;27;46785;-53
2023/09/04 00:26:46;;;;;;;;;6.00;6.00;;;;;29.06;100.00;101714.44;2121938;27;46192;-56
2023/09/04 00:27:46;;;;;;;;;4.67;4.67;;;;;29.06;100.00;101717.19;2121962;27;46389;-55
2023/09/04 00:28:47;;;;;;;;;5.00;5.00;;;;;29.07;100.00;101715.31;2121978;27;46225;-54
2023/09/04 00:29:47;;;;;;;;;6.00;4.00;;;;;29.07;100.00;101715.31;2113701;27;46271;-54
2023/09/04 00:30:48;;;;;;;;;4.00;4.00;;;;;29.06;100.00;101716.31;2118274;27;46362;-55
2023/09/04 00:31:48;;;;;;;;;4.00;4.00;;;;;29.05;100.00;101709.97;2112866;27;46481;-55
2023/09/04 00:32:49;;;;;;;;;5.33;5.33;;;;;29.06;100.00;101713.56;2112431;27;46349;-55
2023/09/04 00:33:49;;;;;;;;;4.00;4.00;;;;;29.05;100.00;101714.56;2121691;27;46667;-54
2023/09/04 00:34:49;;;;;;;;;5.00;5.00;;;;;28.99;100.00;101707.78;2121969;27;46700;-56
2023/09/04 00:35:50;;;;;;;;;7.00;6.00;;;;;28.96;100.00;101708.00;2119044;27;46145;-56
2023/09/04 00:36:50;;;;;;;;;5.67;5.67;;;;;28.93;100.00;101714.59;2115562;27;46133;-53
2023/09/04 00:37:50;;;;;;;;;3.67;3.67;;;;;28.93;100.00;101716.47;2113405;27;46686;-56
2023/09/04 00:38:51;;;;;;;;;5.67;5.67;;;;;28.90;100.00;101712.13;2113020;27;46543;-54
2023/09/04 00:39:51;;;;;;;;;4.00;4.00;;;;;28.89;100.00;101709.53;2121955;27;46255;-51
2023/09/04 00:40:51;;;;;;;;;5.00;5.00;;;;;28.87;100.00;101704.19;2121713;27;46928;-55
2023/09/04 00:41:51;;;;;;;;;5.67;5.00;;;;;28.86;100.00;101707.91;2121744;27;46278;-56
2023/09/04 00:42:52;;;;;;;;;5.00;4.67;;;;;28.92;100.00;101704.66;2121385;27;46173;-55
2023/09/04 00:43:52;;;;;;;;;7.00;5.33;;;;;28.93;100.00;101711.00;2121947;27;46364;-56
2023/09/04 00:44:52;;;;;;;;;5.00;5.00;;;;;28.90;100.00;101708.53;2112754;27;46652;-56
2023/09/04 00:45:53;;;;;;;;;5.67;5.67;;;;;28.92;100.00;101706.53;2121027;27;46414;-54
2023/09/04 00:46:53;;;;;;;;;2.00;2.00;;;;;28.91;100.00;101711.13;2121847;27;46746;-57
2023/09/04 00:47:54;;;;;;;;;4.00;4.00;;;;;28.89;100.00;101707.66;2122508;27;46305;-57
2023/09/04 00:48:54;;;;;;;;;5.00;5.00;;;;;28.88;100.00;101705.94;2121910;27;46846;-55
2023/09/04 00:49:55;;;;;;;;;6.33;6.33;;;;;28.88;100.00;101708.66;2122116;27;46312;-55
2023/09/04 00:50:57;;;;;;;;;6.75;5.00;;;;;28.89;100.00;101709.53;2120861;27;46885;-57
2023/09/04 00:51:58;;;;;;;;;5.25;4.25;;;;;28.88;100.00;101703.19;2118884;27;46503;-56
2023/09/04 00:53:02;;;;;;;;;7.00;7.00;;;;;28.88;100.00;101705.06;2113901;27;46968;-56
2023/09/04 00:54:03;;;;;;;;;3.75;3.75;;;;;28.86;100.00;101712.50;2121813;27;46577;-54
2023/09/04 00:55:05;;;;;;;;;6.00;6.00;;;;;28.84;100.00;101698.97;2121550;27;46280;-55
2023/09/04 00:56:06;;;;;;;;;3.75;3.75;;;;;28.85;100.00;101702.56;2122072;27;46769;-54
2023/09/04 00:57:07;;;;;;;;;4.75;4.75;;;;;28.85;100.00;101697.09;2121941;27;46752;-55
2023/09/04 00:58:08;;;;;;;;;5.00;5.00;;;;;28.86;100.00;101704.31;2123584;27;46230;-56
2023/09/04 00:59:09;;;;;;;;;4.00;4.00;;;;;28.84;100.00;101703.53;2122079;27;46862;-53
2023/09/04 01:00:12;;;;;;;;;5.00;5.00;;;;;28.83;100.00;101694.47;2121226;27;46364;-52
2023/09/04 01:01:13;;;;;;;;;5.00;5.00;;;;;28.82;100.00;101694.59;2121764;27;46986;-56
2023/09/04 01:02:14;;;;;;;;;6.33;6.33;;;;;28.83;100.00;101693.59;2121663;27;46741;-52
2023/09/04 01:03:15;;;;;;;;;5.00;4.25;;;;;28.82;100.00;101697.34;2112090;27;46623;-55
2023/09/04 01:04:16;;;;;;;;;4.75;4.75;;;;;28.81;100.00;101693.72;2113017;27;46463;-55
2023/09/04 01:05:17;;;;;;;;;6.67;6.67;;;;;28.81;100.00;101695.59;2120578;27;45637;-53
2023/09/04 01:06:17;;;;;;;;;5.00;5.00;;;;;28.83;100.00;101691.75;2122201;27;46696;-54
2023/09/04 01:07:18;;;;;;;;;6.00;6.00;;;;;28.82;100.00;101695.47;2121841;27;46290;-54
2023/09/04 01:08:18;;;;;;;;;5.67;5.67;;;;;28.80;100.00;101694.72;2120501;27;46926;-55
2023/09/04 01:09:21;;;;;;;;;6.00;5.00;;;;;28.81;100.00;101693.72;2119858;27;46028;-53
2023/09/04 01:10:21;;;;;;;;;8.50;6.00;;;;;28.81;100.00;101688.28;2121788;27;46713;-52
2023/09/04 01:11:37;;;;;;;;;6.00;6.00;;;;;28.77;100.00;101689.53;2121551;27;46492;-56
2023/09/04 01:12:47;;;;;;;;;5.50;5.50;;;;;28.80;100.00;101700.19;2121631;27;46247;-55
2023/09/04 01:13:51;;;;;;;;;7.25;7.00;;;;;28.78;100.00;101687.66;2121631;27;46069;-55
2023/09/04 01:14:55;;;;;;;;;5.75;5.75;;;;;28.77;100.00;101689.53;2121313;27;46874;-55
2023/09/04 01:15:56;;;;;;;;;4.00;4.00;;;;;28.77;100.00;101688.66;2121952;27;45071;-55
2023/09/04 01:16:57;;;;;;;;;5.00;5.00;;;;;28.76;100.00;101686.94;2122128;27;45590;-56
2023/09/04 01:17:59;;;;;;;;;4.67;4.33;;;;;28.76;100.00;101695.13;2121370;27;46572;-53
2023/09/04 01:19:01;;;;;;;;;6.00;6.00;;;;;28.77;100.00;101691.41;2121979;27;46456;-54
2023/09/04 01:20:24;;;;;;;;;5.00;5.00;;;;;28.75;100.00;101686.06;2121507;27;46696;-55
2023/09/04 01:21:24;;;;;;;;;5.50;5.50;;;;;28.76;100.00;101684.19;2121692;27;46945;-54
2023/09/04 01:22:26;;;;;;;;;6.00;6.00;;;;;28.75;100.00;101683.34;2121571;27;46249;-54
2023/09/04 01:23:26;;;;;;;;;4.00;4.00;;;;;28.75;100.00;101683.34;2121743;27;46744;-54
2023/09/04 01:24:26;;;;;;;;;5.33;5.33;;;;;28.74;100.00;101687.06;2112391;27;46391;-53
2023/09/04 01:25:39;;;;;;;;;5.00;5.00;;;;;28.75;100.00;101685.19;2108880;27;46469;-55
2023/09/04 01:26:47;;;;;;;;;7.75;6.50;;;;;28.73;100.00;101688.06;2112957;27;46339;-53
2023/09/04 01:27:57;;;;;;;;;5.00;5.00;;;;;28.72;100.00;101687.19;2121239;27;46401;-55
2023/09/04 01:29:06;;;;;;;;;6.00;6.00;;;;;28.70;100.00;101677.34;2118696;27;45680;-55
2023/09/04 01:30:17;;;;;;;;;4.00;4.00;;;;;28.71;100.00;101682.72;2122720;27;47091;-56
2023/09/04 01:31:28;;;;;;;;;4.75;4.75;;;;;28.72;100.00;101684.47;2121823;27;46488;-54
2023/09/04 01:32:40;;;;;;;;;6.00;5.00;;;;;28.71;100.00;101680.00;2113700;27;45218;-54
2023/09/04 01:33:48;;;;;;;;;5.75;5.75;;;;;28.72;100.00;101687.19;2103780;27;46794;-54
2023/09/04 01:34:51;;;;;;;;;6.75;6.75;;;;;28.71;100.00;101681.81;2098912;28;46581;-54
2023/09/04 01:35:51;;;;;;;;;5.25;4.25;;;;;28.69;100.00;101676.50;2109918;27;46596;-53
2023/09/04 01:36:54;;;;;;;;;5.25;5.25;;;;;28.70;100.00;101688.28;2105441;28;46462;-54
2023/09/04 01:37:54;;;;;;;;;6.00;6.00;;;;;28.67;100.00;101683.94;2097293;27;46556;-55
2023/09/04 01:38:56;;;;;;;;;7.00;7.00;;;;;28.65;100.00;101685.94;2113804;27;45452;-54
2023/09/04 01:39:57;;;;;;;;;4.00;4.00;;;;;28.64;100.00;101681.47;2123064;27;46626;-55
2023/09/04 01:40:58;;;;;;;;;5.00;5.00;;;;;28.63;100.00;101681.63;2123018;27;47194;-54
2023/09/04 01:41:58;;;;;;;;;6.00;6.00;;;;;28.63;100.00;101676.16;2122770;27;45855;-55
2023/09/04 01:42:58;;;;;;;;;6.00;6.00;;;;;28.63;100.00;101684.34;2122602;27;46180;-55
2023/09/04 01:43:58;;;;;;;;;5.67;5.67;;;;;28.64;100.00;101677.88;2122626;27;46262;-55
2023/09/04 01:44:59;;;;;;;;;5.00;5.00;;;;;28.62;100.00;101678.00;2123014;27;46271;-55
2023/09/04 01:46:00;;;;;;;;;5.00;5.00;;;;;28.60;100.00;101674.56;2123190;27;45035;-54
2023/09/04 01:47:01;;;;;;;;;5.00;5.00;;;;;28.60;100.00;101671.81;2122388;27;46003;-54
2023/09/04 01:48:02;;;;;;;;;6.00;5.60;;;;;28.59;100.00;101670.09;2123066;27;46489;-54
2023/09/04 01:49:02;;;;;;;;;7.00;6.00;;;;;28.57;100.00;101669.31;2104418;28;46510;-54
2023/09/04 01:50:03;;;;;;;;;7.25;7.25;;;;;28.56;100.00;101664.84;2104903;28;46502;-56
2023/09/04 01:51:03;;;;;;;;;8.25;7.25;;;;;28.56;100.00;101666.72;2098348;28;46819;-54
2023/09/04 01:52:04;;;;;;;;;8.00;8.00;;;;;28.56;100.00;101667.56;2102356;28;46402;-52
2023/09/04 01:53:04;;;;;;;;;4.00;4.00;;;;;28.54;100.00;101666.84;2113335;27;46261;-54
2023/09/04 01:54:05;;;;;;;;;6.00;6.00;;;;;28.54;100.00;101660.50;2112527;27;45703;-55
2023/09/04 01:55:05;;;;;;;;;7.75;7.75;;;;;28.53;100.00;101669.69;2121892;27;46225;-55
2023/09/04 01:56:06;;;;;;;;;6.50;6.50;;;;;28.52;100.00;101668.84;2123061;27;46347;-52
2023/09/04 01:57:06;;;;;;;;;5.75;5.75;;;;;28.52;100.00;101665.25;2122617;27;46246;-55
2023/09/04 01:58:06;;;;;;;;;10.25;8.50;;;;;28.51;100.00;101666.25;2108175;27;46309;-55
2023/09/04 01:59:07;;;;;;;;;7.00;7.00;;;;;28.51;100.00;101661.66;2106621;27;47061;-56
2023/09/04 02:00:09;;;;;;;;;7.25;7.25;;;;;28.51;100.00;101666.25;2113799;27;46259;-53
2023/09/04 02:01:09;;;;;;;;;8.00;8.00;;;;;28.50;100.00;101662.63;2113806;27;46500;-53
2023/09/04 02:02:09;;;;;;;;;5.25;5.25;;;;;28.48;100.00;101659.19;2122944;27;46809;-56
2023/09/04 02:03:09;;;;;;;;;7.25;7.25;;;;;28.48;100.00;101663.75;2122712;27;46206;-55
2023/09/04 02:04:10;;;;;;;;;5.75;5.75;;;;;28.47;100.00;101659.31;2122413;27;46277;-55
2023/09/04 02:05:10;;;;;;;;;6.00;6.00;;;;;28.44;100.00;101653.06;2123199;27;46678;-54
2023/09/04 02:06:11;;;;;;;;;6.75;6.75;;;;;28.44;100.00;101661.25;2122825;27;46504;-56
2023/09/04 02:07:11;;;;;;;;;7.75;7.00;;;;;28.42;100.00;101649.59;2122501;27;46582;-53
2023/09/04 02:08:11;;;;;;;;;7.75;6.50;;;;;28.40;100.00;101654.31;2122796;27;46696;-56
2023/09/04 02:09:11;;;;;;;;;7.00;7.00;;;;;28.40;100.00;101653.47;2120500;27;46489;-57
2023/09/04 02:10:12;;;;;;;;;7.75;7.75;;;;;28.38;100.00;101648.13;2121391;27;47055;-56
2023/09/04 02:11:12;;;;;;;;;7.00;7.00;;;;;28.37;100.00;101649.13;2122397;27;46529;-56
2023/09/04 02:12:12;;;;;;;;;6.50;6.50;;;;;28.38;100.00;101644.53;2121212;27;46640;-55
2023/09/04 02:13:13;;;;;;;;;5.50;5.50;;;;;28.37;100.00;101643.66;2118672;27;46549;-56
2023/09/04 02:14:13;;;;;;;;;9.25;9.25;;;;;28.38;100.00;101650.00;2122748;27;46630;-55
2023/09/04 02:15:13;;;;;;;;;8.50;8.00;;;;;28.35;100.00;101634.75;2122684;27;46449;-56
2023/09/04 02:16:14;;;;;;;;;7.50;6.50;;;;;28.35;100.00;101645.66;2119754;27;46323;-55
2023/09/04 02:17:14;;;;;;;;;6.50;6.50;;;;;28.35;100.00;101640.19;2119930;27;46474;-55
2023/09/04 02:18:14;;;;;;;;;6.00;6.00;;;;;28.35;100.00;101634.75;2122608;27;46380;-55
2023/09/04 02:19:15;;;;;;;;;6.00;5.00;;;;;28.33;100.00;101631.28;2122440;27;46238;-55
2023/09/04 02:20:15;;;;;;;;;7.00;7.00;;;;;28.33;100.00;101639.47;2122735;27;46263;-54
2023/09/04 02:21:15;;;;;;;;;7.00;7.00;;;;;28.33;100.00;101627.66;2123076;27;46712;-55
2023/09/04 02:22:16;;;;;;;;;4.75;4.75;;;;;28.32;100.00;101629.50;2122392;27;46554;-53
2023/09/04 02:23:16;;;;;;;;;5.00;5.00;;;;;28.32;100.00;101629.50;2122973;27;46875;-52
2023/09/04 02:24:16;;;;;;;;;5.00;5.00;;;;;28.31;100.00;101624.19;2119692;27;46492;-55
2023/09/04 02:25:16;;;;;;;;;6.75;6.75;;;;;28.30;100.00;101622.44;2118415;27;45565;-54
2023/09/04 02:26:17;;;;;;;;;5.00;5.00;;;;;28.29;100.00;101616.13;2122775;27;46499;-56
2023/09/04 02:27:17;;;;;;;;;9.00;8.50;;;;;28.29;100.00;101621.56;2113286;27;46294;-55
2023/09/04 02:28:17;;;;;;;;;7.00;7.00;;;;;28.30;100.00;101630.63;2112066;27;46283;-56
2023/09/04 02:29:18;;;;;;;;;8.00;8.00;;;;;28.28;100.00;101622.56;2122006;27;46119;-54
2023/09/04 02:30:18;;;;;;;;;6.25;6.25;;;;;28.28;100.00;101632.63;2122841;27;46776;-56
2023/09/04 02:31:18;;;;;;;;;7.00;7.00;;;;;28.26;100.00;101624.53;2122625;27;46515;-54
2023/09/04 02:32:19;;;;;;;;;3.00;3.00;;;;;28.26;100.00;101619.06;2122369;27;46473;-55
2023/09/04 02:33:19;;;;;;;;;5.25;5.00;;;;;28.25;100.00;101622.78;2117425;27;46455;-54
2023/09/04 02:34:19;;;;;;;;;4.00;4.00;;;;;28.24;100.00;101615.59;2106432;27;46351;-54
2023/09/04 02:35:20;;;;;;;;;4.75;4.75;;;;;28.24;100.00;101622.94;2113360;27;47121;-57
2023/09/04 02:36:23;;;;;;;;;6.00;6.00;;;;;28.24;100.00;101617.47;2120657;27;46823;-55
2023/09/04 02:37:23;;;;;;;;;5.75;5.75;;;;;28.21;100.00;101615.88;2113969;27;46615;-57
2023/09/04 02:38:23;;;;;;;;;7.33;7.33;;;;;28.22;100.00;101619.47;2114161;27;45477;-56
2023/09/04 02:39:24;;;;;;;;;6.67;6.67;;;;;28.21;100.00;101620.47;2122219;27;46656;-57
2023/09/04 02:40:24;;;;;;;;;6.00;6.00;;;;;28.20;100.00;101615.97;2122204;27;46239;-54
2023/09/04 02:41:24;;;;;;;;;8.33;8.00;;;;;28.19;100.00;101617.81;2113401;27;46517;-57
2023/09/04 02:42:28;;;;;;;;;6.00;6.00;;;;;28.19;100.00;101616.97;2115896;27;46393;-55
2023/09/04 02:43:28;;;;;;;;;8.50;6.25;;;;;28.17;100.00;101614.34;2122046;27;46831;-56
2023/09/04 02:44:29;;;;;;;;;6.00;6.00;;;;;28.18;100.00;101609.75;2122852;27;46441;-57
2023/09/04 02:45:29;;;;;;;;;6.00;6.00;;;;;28.18;100.00;101607.03;2122400;27;46441;-58
2023/09/04 02:46:32;;;;;;;;;5.33;5.33;;;;;28.17;100.00;101608.91;2122595;27;46320;-55
2023/09/04 02:47:32;;;;;;;;;6.50;6.50;;;;;28.16;100.00;101612.63;2122672;27;46425;-56
2023/09/04 02:48:32;;;;;;;;;6.00;6.00;;;;;28.15;100.00;101603.56;2122254;27;46280;-55
2023/09/04 02:49:33;;;;;;;;;6.00;6.00;;;;;28.17;100.00;101602.56;2122503;27;46719;-57
2023/09/04 02:50:34;;;;;;;;;7.00;6.00;;;;;28.15;100.00;101608.16;2122724;27;46628;-53
2023/09/04 02:51:34;;;;;;;;;6.75;6.75;;;;;28.14;100.00;101600.97;2122454;27;46405;-57
2023/09/04 02:52:35;;;;;;;;;7.00;7.00;;;;;28.14;100.00;101609.16;2123319;27;46457;-58
2023/09/04 02:53:35;;;;;;;;;6.33;6.33;;;;;28.13;100.00;101607.41;2107708;27;46384;-56
2023/09/04 02:54:35;;;;;;;;;7.00;7.00;;;;;28.14;100.00;101599.09;2110357;27;46691;-57
2023/09/04 02:55:36;;;;;;;;;4.00;4.00;;;;;28.14;100.00;101606.44;2113792;27;45561;-55
2023/09/04 02:56:36;;;;;;;;;6.00;6.00;;;;;28.14;100.00;101600.97;2113499;27;46484;-54
2023/09/04 02:57:37;;;;;;;;;8.00;6.67;;;;;28.13;100.00;101601.97;2122788;27;45753;-56
2023/09/04 02:58:37;;;;;;;;;5.00;5.00;;;;;28.13;100.00;101596.50;2122098;27;46602;-53
2023/09/04 02:59:37;;;;;;;;;6.67;6.33;;;;;28.12;100.00;101597.50;2121599;27;46386;-53
2023/09/04 03:00:41;;;;;;;;;5.67;5.67;;;;;28.11;100.00;101595.78;2122310;27;46161;-55
2023/09/04 03:01:41;;;;;;;;;7.75;7.75;;;;;28.09;100.00;101595.03;2122391;27;46449;-54
2023/09/04 03:02:41;;;;;;;;;7.00;7.00;;;;;28.09;100.00;101587.72;2122681;27;46774;-55
2023/09/04 03:03:42;;;;;;;;;5.67;5.67;;;;;28.09;100.00;101592.31;2122488;27;46683;-55
2023/09/04 03:04:42;;;;;;;;;6.00;6.00;;;;;28.09;100.00;101592.31;2116495;27;46364;-54
2023/09/04 03:05:43;;;;;;;;;7.33;7.33;;;;;28.08;100.00;101598.75;2112966;27;46906;-51
2023/09/04 03:06:43;;;;;;;;;6.00;6.00;;;;;28.07;100.00;101591.53;2113419;27;47065;-53
2023/09/04 03:07:43;;;;;;;;;8.00;6.33;;;;;28.07;100.00;101602.44;2113405;27;46624;-54
2023/09/04 03:08:44;;;;;;;;;6.33;5.00;;;;;28.05;100.00;101591.66;2113789;27;46952;-54
2023/09/04 03:09:44;;;;;;;;;5.33;5.33;;;;;28.04;100.00;101595.38;2118460;27;46103;-54
2023/09/04 03:10:44;;;;;;;;;5.67;5.67;;;;;28.04;100.00;101595.38;2119204;27;46740;-55
2023/09/04 03:11:45;;;;;;;;;7.00;7.00;;;;;28.04;100.00;101597.25;2122012;27;46264;-54
2023/09/04 03:12:45;;;;;;;;;6.33;6.33;;;;;28.02;100.00;101602.84;2113191;27;46143;-53
2023/09/04 03:13:45;;;;;;;;;4.33;4.33;;;;;28.03;100.00;101609.16;2112845;27;46447;-53
2023/09/04 03:14:46;;;;;;;;;5.00;5.00;;;;;28.01;100.00;101603.81;2122318;27;46449;-54
2023/09/04 03:15:47;;;;;;;;;7.00;5.00;;;;;28.03;100.00;101606.44;2121529;27;46632;-51
2023/09/04 03:16:47;;;;;;;;;6.50;6.50;;;;;28.01;100.00;101595.63;2122554;27;46938;-53
2023/09/04 03:17:47;;;;;;;;;7.00;6.00;;;;;28.01;100.00;101600.22;2122476;27;46942;-54
2023/09/04 03:18:48;;;;;;;;;5.00;5.00;;;;;28.01;100.00;101595.63;2122314;27;46455;-54
2023/09/04 03:19:51;;;;;;;;;6.33;6.33;;;;;28.00;100.00;101599.38;2122450;27;46406;-55
2023/09/04 03:20:51;;;;;;;;;8.50;7.00;;;;;28.00;100.00;101601.22;2122383;27;46386;-55
2023/09/04 03:21:51;;;;;;;;;6.00;6.00;;;;;27.98;100.00;101604.09;2122356;27;46253;-54
2023/09/04 03:22:52;;;;;;;;;6.00;6.00;;;;;27.98;100.00;101600.50;2122558;27;46334;-52
2023/09/04 03:23:52;;;;;;;;;5.33;5.33;;;;;27.97;100.00;101599.63;2122377;27;45545;-54
2023/09/04 03:24:53;;;;;;;;;6.00;6.00;;;;;27.98;100.00;101600.50;2122235;27;46446;-57
2023/09/04 03:25:55;;;;;;;;;6.50;6.50;;;;;27.97;100.00;101602.34;2122084;27;46273;-55
2023/09/04 03:26:56;;;;;;;;;6.00;5.75;;;;;27.95;100.00;101604.34;2122476;27;45705;-54
2023/09/04 03:27:57;;;;;;;;;4.25;4.25;;;;;27.95;100.00;101600.72;2122364;27;46253;-56
2023/09/04 03:28:57;;;;;;;;;6.67;6.67;;;;;27.92;100.00;101599.09;2122253;27;46217;-54
2023/09/04 03:29:58;;;;;;;;;6.67;6.67;;;;;27.92;100.00;101601.84;2122286;27;46504;-55
2023/09/04 03:30:58;;;;;;;;;7.33;6.00;;;;;27.91;100.00;101597.38;2122365;27;46248;-56
2023/09/04 03:31:58;;;;;;;;;6.00;6.00;;;;;27.91;100.00;101601.97;2122183;27;46274;-55
2023/09/04 03:32:59;;;;;;;;;7.00;7.00;;;;;27.90;100.00;101597.50;2121417;27;46482;-55
2023/09/04 03:34:00;;;;;;;;;7.33;6.67;;;;;27.88;100.00;101591.31;2115458;27;47198;-54
2023/09/04 03:35:00;;;;;;;;;7.00;6.25;;;;;27.85;100.00;101592.44;2115668;27;46441;-54
2023/09/04 03:36:01;;;;;;;;;9.75;9.00;;;;;27.86;100.00;101585.97;2120525;27;46298;-56
2023/09/04 03:37:01;;;;;;;;;7.67;7.33;;;;;27.86;100.00;101588.72;2122259;27;46308;-55
2023/09/04 03:38:01;;;;;;;;;7.00;6.00;;;;;27.85;100.00;101587.84;2122171;27;46200;-55
2023/09/04 03:39:03;;;;;;;;;7.33;7.00;;;;;27.85;100.00;101592.44;2122038;27;46306;-55
2023/09/04 03:40:23;;;;;;;;;5.75;5.75;;;;;27.84;100.00;101590.69;2122661;27;46444;-56
2023/09/04 03:41:24;;;;;;;;;6.25;6.25;;;;;27.83;100.00;101589.81;2119646;27;46371;-55
2023/09/04 03:42:25;;;;;;;;;8.25;7.00;;;;;27.82;100.00;101596.28;2122255;27;46478;-56
2023/09/04 03:43:25;;;;;;;;;5.33;5.33;;;;;27.82;100.00;101585.38;2122119;27;47042;-54
2023/09/04 03:44:26;;;;;;;;;9.00;9.00;;;;;27.83;100.00;101583.50;2121805;27;46464;-56
2023/09/04 03:45:34;;;;;;;;;7.50;7.50;;;;;27.81;100.00;101590.91;2117340;27;46831;-56
2023/09/04 03:46:34;;;;;;;;;6.50;6.50;;;;;27.79;100.00;101582.88;2115015;27;46500;-55
2023/09/04 03:47:34;;;;;;;;;7.33;7.33;;;;;27.80;100.00;101581.00;2121913;27;46189;-56
2023/09/04 03:48:35;;;;;;;;;7.00;6.33;;;;;27.79;100.00;101582.88;2121986;27;46209;-55
2023/09/04 03:49:35;;;;;;;;;10.67;8.00;;;;;27.79;100.00;101582.00;2113421;27;46615;-54
2023/09/04 03:50:35;;;;;;;;;8.50;8.25;;;;;27.79;100.00;101577.41;2112778;27;46523;-55
2023/09/04 03:51:36;;;;;;;;;5.00;5.00;;;;;27.79;100.00;101588.31;2121824;27;46866;-55
2023/09/04 03:52:38;;;;;;;;;8.00;8.00;;;;;27.79;100.00;101577.41;2122516;27;46172;-54
2023/09/04 03:53:38;;;;;;;;;10.00;8.00;;;;;27.79;100.00;101585.59;2122137;27;46298;-55
2023/09/04 03:54:38;;;;;;;;;8.00;7.25;;;;;27.78;100.00;101583.84;2112711;27;46732;-55
2023/09/04 03:55:39;;;;;;;;;9.00;7.00;;;;;27.78;100.00;101586.59;2113380;27;45705;-56
2023/09/04 03:56:39;;;;;;;;;7.00;7.00;;;;;27.77;100.00;101590.31;2122829;27;46458;-55
2023/09/04 03:57:46;;;;;;;;;7.67;7.67;;;;;27.77;100.00;101590.31;2121769;27;46608;-56
2023/09/04 03:58:47;;;;;;;;;7.75;7.75;;;;;27.76;100.00;101594.03;2126011;27;46945;-55
2023/09/04 03:59:52;;;;;;;;;9.00;8.00;;;;;27.76;100.00;101591.31;2121662;27;46556;-53
2023/09/04 04:00:57;;;;;;;;;8.00;8.00;;;;;27.73;100.00;101587.97;2121446;27;46543;-51
2023/09/04 04:01:57;;;;;;;;;7.60;6.20;;;;;27.74;100.00;101593.28;2121713;27;46571;-55
2023/09/04 04:02:58;;;;;;;;;6.50;6.50;;;;;27.74;100.00;101597.88;2121322;27;46688;-54
2023/09/04 04:04:02;;;;;;;;;7.40;7.40;;;;;27.72;100.00;101598.00;2122318;27;46466;-55
2023/09/04 04:05:02;;;;;;;;;6.80;6.80;;;;;27.71;100.00;101599.00;2122270;27;46489;-54
2023/09/04 04:06:13;;;;;;;;;7.25;6.75;;;;;27.72;100.00;101595.28;2121690;27;46204;-54
2023/09/04 04:07:13;;;;;;;;;7.20;7.20;;;;;27.70;100.00;101589.06;2113816;27;46759;-56
2023/09/04 04:08:13;;;;;;;;;6.75;6.75;;;;;27.70;100.00;101591.81;2119559;27;46646;-56
2023/09/04 04:09:15;;;;;;;;;8.50;8.50;;;;;27.71;100.00;101592.69;2121724;27;46255;-56
2023/09/04 04:10:16;;;;;;;;;7.00;7.00;;;;;27.68;100.00;101588.31;2120049;27;46454;-56
2023/09/04 04:11:16;;;;;;;;;7.75;7.75;;;;;27.68;100.00;101590.16;2121743;27;46578;-55
2023/09/04 04:12:17;;;;;;;;;8.25;8.25;;;;;27.68;100.00;101596.50;2121505;27;46423;-55
2023/09/04 04:13:17;;;;;;;;;7.50;7.50;;;;;27.67;100.00;101588.44;2121957;27;45807;-56
2023/09/04 04:14:17;;;;;;;;;5.00;5.00;;;;;27.66;100.00;101594.88;2121743;27;46348;-56
2023/09/04 04:15:18;;;;;;;;;5.00;5.00;;;;;27.64;100.00;101584.09;2121586;27;46586;-56
2023/09/04 04:16:18;;;;;;;;;7.00;6.50;;;;;27.63;100.00;101587.78;2121599;27;46826;-55
2023/09/04 04:17:18;;;;;;;;;7.00;7.00;;;;;27.63;100.00;101586.91;2122112;27;46612;-54
2023/09/04 04:18:19;;;;;;;;;7.25;7.25;;;;;27.63;100.00;101586.91;2121831;27;46246;-55
2023/09/04 04:19:20;;;;;;;;;6.00;6.00;;;;;27.62;100.00;101591.50;2121190;27;46326;-55
2023/09/04 04:20:22;;;;;;;;;8.80;8.00;;;;;27.62;100.00;101579.72;2111846;27;46359;-54
2023/09/04 04:21:22;;;;;;;;;6.80;6.80;;;;;27.62;100.00;101587.91;2112115;27;47020;-54
2023/09/04 04:22:23;;;;;;;;;9.50;8.50;;;;;27.60;100.00;101588.03;2122800;27;45854;-54
2023/09/04 04:23:23;;;;;;;;;7.50;7.50;;;;;27.58;100.00;101579.13;2115982;27;46853;-54
2023/09/04 04:24:24;;;;;;;;;9.75;9.00;;;;;27.60;100.00;101589.91;2115709;27;46759;-55
2023/09/04 04:25:24;;;;;;;;;7.00;7.00;;;;;27.59;100.00;101590.88;2122032;27;46723;-53
2023/09/04 04:26:24;;;;;;;;;10.00;8.00;;;;;27.58;100.00;101584.56;2121893;27;46338;-55
2023/09/04 04:27:25;;;;;;;;;7.00;7.00;;;;;27.58;100.00;101587.28;2122138;27;46145;-56
2023/09/04 04:28:25;;;;;;;;;7.50;6.25;;;;;27.57;100.00;101585.56;2119501;27;46015;-55
2023/09/04 04:29:26;;;;;;;;;7.67;7.67;;;;;27.57;100.00;101588.28;2121140;27;46096;-55
2023/09/04 04:30:26;;;;;;;;;8.00;8.00;;;;;27.56;100.00;101584.66;2119918;27;45857;-54
2023/09/04 04:31:26;;;;;;;;;7.00;7.00;;;;;27.56;100.00;101581.94;2121995;27;46253;-55
2023/09/04 04:32:27;;;;;;;;;8.67;8.67;;;;;27.57;100.00;101585.56;2121797;27;46490;-56
2023/09/04 04:33:27;;;;;;;;;7.00;7.00;;;;;27.57;100.00;101580.09;2121818;27;46096;-52
2023/09/04 04:34:28;;;;;;;;;7.50;7.50;;;;;27.56;100.00;101579.22;2121326;27;46812;-54
2023/09/04 04:35:28;;;;;;;;;6.33;6.33;;;;;27.56;100.00;101572.88;2121801;27;46716;-54
2023/09/04 04:36:28;;;;;;;;;7.00;7.00;;;;;27.55;100.00;101576.59;2122270;27;46559;-54
2023/09/04 04:37:29;;;;;;;;;6.00;6.00;;;;;27.56;100.00;101572.88;2124037;27;46373;-55
2023/09/04 04:38:29;;;;;;;;;7.00;6.00;;;;;27.56;100.00;101581.06;2118829;27;45193;-54
2023/09/04 04:39:29;;;;;;;;;7.50;7.50;;;;;27.56;100.00;101583.78;2121993;27;46418;-55
2023/09/04 04:40:30;;;;;;;;;8.00;8.00;;;;;27.55;100.00;101579.34;2121447;27;46159;-56
2023/09/04 04:41:32;;;;;;;;;7.00;7.00;;;;;27.56;100.00;101581.06;2122031;27;45422;-54